Baltic Advance — C4FU2 — position and weather

sailwx.info

Track history (hours):
 
Tides and Currents Weather Stations Pressure Air Temp Water Temp Dewpoint Dewpoint Depression Visibility Wind Speed Wind Dir Waves Ship Positions

Baltic Advance

Last reported at 2017-Nov-24 13:44 UTC. Time now 2017-Nov-24 16:55 UTC.
Position N 55°12' E 013°09'.

Length 181 m; draft 6.8 m.

Type: Ship. MMSI: 212182000.

Date/timePositionNaut miles runAvg speedWind from/ knotsBaromVisibWave heightAir tempDewpointWater temp
2017-Nov-24 13:44N 55°12' E 013°09'3 9.3
2017-Nov-24 13:28N 55°13' E 013°04'4 9.3
2017-Nov-24 13:00N 55°14' E 012°57'5 9.6
2017-Nov-24 12:28N 55°15' E 012°49'510.1
2017-Nov-24 11:59N 55°17' E 012°41'3 6.7
2017-Nov-24 11:30N 55°19' E 012°37'4 8.7
2017-Nov-24 11:00N 55°24' E 012°39'4 8.7
2017-Nov-24 10:30N 55°28' E 012°41'4 8.0
2017-Nov-24 10:00N 55°31' E 012°45'5 9.5
2017-Nov-24 09:30N 55°35' E 012°50'510.9
2017-Nov-24 09:01N 55°39' E 012°56'713.6
2017-Nov-24 08:31N 55°45' E 012°51'713.7
2017-Nov-24 08:00N 55°51' E 012°45'713.4
2017-Nov-24 07:31N 55°58' E 012°42'612.8
2017-Nov-24 07:01N 56°04' E 012°38'611.7
2017-Nov-24 06:31N 56°07' E 012°30'4 7.9
2017-Nov-24 06:01N 56°10' E 012°25'3 6.3
2017-Nov-24 05:30N 56°11' E 012°20'3 6.3
2017-Nov-24 05:01N 56°13' E 012°15'5 8.8
2017-Nov-24 04:29N 56°16' E 012°08'58 8.7
2017-Nov-23 21:50N 57°11' E 011°36'2 7.7
2017-Nov-23 21:31N 57°13' E 011°34'4 7.9
2017-Nov-23 21:00N 57°17' E 011°31'4 8.0
2017-Nov-23 20:30N 57°21' E 011°29'4 8.4
2017-Nov-23 20:01N 57°24' E 011°27'4 8.2
2017-Nov-23 19:31N 57°28' E 011°24'5 9.4
2017-Nov-23 19:00N 57°31' E 011°17'5 9.4
2017-Nov-23 18:30N 57°34' E 011°10'5 9.5
2017-Nov-23 17:58N 57°38' E 011°03'5 9.3
2017-Nov-23 17:29N 57°41' E 010°57'5 9.2
2017-Nov-23 16:59N 57°44' E 010°51'5 9.5
2017-Nov-23 16:29N 57°47' E 010°44'4 9.1
2017-Nov-23 16:00N 57°51' E 010°39'4 9.1
2017-Nov-23 15:31N 57°53' E 010°33'4 7.7
2017-Nov-23 14:59N 57°56' E 010°27'39 9.7
2017-Nov-23 10:57N 57°48' E 009°14'510.6
2017-Nov-23 10:28N 57°47' E 009°05'510.2
2017-Nov-23 10:00N 57°44' E 008°58'611.4
2017-Nov-23 09:29N 57°40' E 008°51'612.5
2017-Nov-23 08:59N 57°35' E 008°43'  
2017-Nov-20 00:30N 51°28' E 000°16'0 0.0
2017-Nov-20 00:00N 51°28' E 000°16'0 0.0
2017-Nov-19 23:30N 51°28' E 000°16'0 0.0
2017-Nov-19 23:00N 51°28' E 000°16'0 0.0
2017-Nov-19 22:31N 51°28' E 000°16'0 0.0
2017-Nov-19 22:00N 51°28' E 000°16'0 0.0
2017-Nov-19 21:30N 51°28' E 000°16'0 0.0
2017-Nov-19 21:00N 51°28' E 000°16'0 0.0
2017-Nov-19 20:30N 51°28' E 000°16'0 0.0
2017-Nov-19 20:01N 51°28' E 000°16'0 0.0
2017-Nov-19 19:30N 51°28' E 000°16'0 0.0
2017-Nov-19 19:00N 51°28' E 000°16'0 0.0
2017-Nov-19 18:30N 51°28' E 000°16'0 0.0
2017-Nov-19 18:00N 51°28' E 000°16'0 0.0
2017-Nov-19 17:30N 51°28' E 000°16'0 0.0
2017-Nov-19 17:01N 51°28' E 000°16'0 0.0
2017-Nov-19 16:31N 51°28' E 000°16'0 0.0
2017-Nov-19 16:01N 51°28' E 000°16'0 0.0
2017-Nov-19 15:30N 51°28' E 000°16'0 0.1
2017-Nov-19 15:01N 51°28' E 000°16'2 3.0
2017-Nov-19 14:30N 51°28' E 000°19'3 6.7
2017-Nov-19 14:00N 51°27' E 000°24'510.0
2017-Nov-19 13:31N 51°30' E 000°30'4 8.4
2017-Nov-19 13:00N 51°30' E 000°37'4 7.0
2017-Nov-19 12:30N 51°30' E 000°42'710.9
2017-Nov-19 11:54N 51°29' E 000°53'510.6
2017-Nov-19 11:28N 51°30' E 001°00'511.1
2017-Nov-19 10:59N 51°32' E 001°08'713.6
2017-Nov-19 10:30N 51°36' E 001°17'714.3
2017-Nov-19 10:00N 51°40' E 001°25'714.5
2017-Nov-19 09:30N 51°46' E 001°32'713.0
2017-Nov-19 09:00N 51°50' E 001°40'2 4.9
2017-Nov-19 08:30N 51°52' E 001°44'2 5.0
2017-Nov-19 08:00N 51°54' E 001°43'1 0.9
2017-Nov-19 06:53N 51°55' E 001°42'0 0.1
2017-Nov-19 06:28N 51°55' E 001°42'0 0.1
2017-Nov-19 05:58N 51°55' E 001°42'0 0.3
2017-Nov-19 05:28N 51°55' E 001°42'0 0.2
2017-Nov-19 04:58N 51°55' E 001°42'0 0.1
2017-Nov-19 04:28N 51°55' E 001°42'0 0.0
2017-Nov-19 03:57N 51°55' E 001°42'0 0.0
2017-Nov-19 03:30N 51°55' E 001°42'0 0.0
2017-Nov-19 03:00N 51°55' E 001°42'0 0.0
2017-Nov-19 02:30N 51°55' E 001°42'0 0.0
2017-Nov-19 02:00N 51°55' E 001°42'0 0.1
2017-Nov-19 01:15N 51°55' E 001°42'0 0.2
2017-Nov-19 00:56N 51°55' E 001°42'0 0.2
2017-Nov-19 00:20N 51°55' E 001°42'0 0.1
2017-Nov-18 23:56N 51°55' E 001°42'0 0.2
2017-Nov-18 23:19N 51°55' E 001°42'0 0.1
2017-Nov-18 22:58N 51°55' E 001°42'0 0.0
2017-Nov-18 22:25N 51°55' E 001°42'0 0.0
2017-Nov-18 21:58N 51°55' E 001°42'0 0.0
2017-Nov-18 21:28N 51°55' E 001°42'0 0.0
2017-Nov-18 20:57N 51°55' E 001°42'0 0.0
2017-Nov-18 20:30N 51°55' E 001°42'0 0.0
2017-Nov-18 20:00N 51°55' E 001°42'0 0.0
2017-Nov-18 19:30N 51°55' E 001°42'0 0.0
2017-Nov-18 18:56N 51°55' E 001°42'0 0.2
2017-Nov-18 18:20N 51°55' E 001°42'0 0.2
2017-Nov-18 17:53N 51°55' E 001°42'0 0.3
2017-Nov-18 17:23N 51°55' E 001°42'0 0.1
2017-Nov-18 16:59N 51°55' E 001°42'0 0.0
2017-Nov-18 16:28N 51°55' E 001°42'0 0.0
2017-Nov-18 15:58N 51°55' E 001°42'0 0.0
2017-Nov-18 15:28N 51°55' E 001°42'0 0.0
2017-Nov-18 14:55N 51°55' E 001°42'0 0.0
2017-Nov-18 14:28N 51°55' E 001°42'0 0.0
2017-Nov-18 13:57N 51°55' E 001°42'0 0.0
2017-Nov-18 13:27N 51°55' E 001°42'0 0.1
2017-Nov-18 12:57N 51°55' E 001°42'0 0.1
2017-Nov-18 12:27N 51°55' E 001°42'0 0.0
2017-Nov-18 11:56N 51°55' E 001°42'0 0.3
2017-Nov-18 11:29N 51°55' E 001°42'0 0.1
2017-Nov-18 10:02N 51°55' E 001°42'0 0.0
2017-Nov-18 09:44N 51°55' E 001°42'0 0.0
2017-Nov-18 09:19N 51°55' E 001°42'0 0.0
2017-Nov-18 08:58N 51°55' E 001°42'0 0.0
2017-Nov-18 08:28N 51°55' E 001°42'0 0.0
2017-Nov-18 07:58N 51°55' E 001°42'0 0.0
2017-Nov-18 07:28N 51°55' E 001°42'0 0.0
2017-Nov-18 07:00N 51°55' E 001°42'0 0.1
2017-Nov-18 06:30N 51°55' E 001°42'0 0.3
2017-Nov-18 06:00N 51°55' E 001°42'0 0.1
2017-Nov-18 05:18N 51°55' E 001°42'0 0.1
2017-Nov-18 04:53N 51°55' E 001°42'0 0.1
2017-Nov-18 04:29N 51°55' E 001°42'0 0.0
2017-Nov-18 03:53N 51°55' E 001°42'0 0.0
2017-Nov-18 03:29N 51°55' E 001°42'0 0.0
2017-Nov-18 02:56N 51°55' E 001°42'0 0.0
2017-Nov-18 02:22N 51°55' E 001°42'0 0.0
2017-Nov-18 01:58N 51°55' E 001°42'0 0.0
2017-Nov-18 01:25N 51°55' E 001°42'0 0.0
2017-Nov-18 00:55N 51°55' E 001°42'0 0.1
2017-Nov-18 00:25N 51°55' E 001°42'0 0.1
2017-Nov-18 00:00N 51°55' E 001°42'0 0.1
2017-Nov-17 23:24N 51°55' E 001°42'0 0.3
2017-Nov-17 23:00N 51°55' E 001°42'0 0.1
2017-Nov-17 22:18N 51°55' E 001°42'0 0.0
2017-Nov-17 21:53N 51°55' E 001°42'0 0.0
2017-Nov-17 21:29N 51°55' E 001°42'0 0.0
2017-Nov-17 20:56N 51°55' E 001°42'0 0.0
2017-Nov-17 20:26N 51°55' E 001°42'0 0.0
2017-Nov-17 19:50N 51°55' E 001°42'0 0.0
2017-Nov-17 19:10N 51°55' E 001°42'0 0.0
2017-Nov-17 18:58N 51°55' E 001°42'0 0.0
2017-Nov-17 18:28N 51°55' E 001°42'0 0.0
2017-Nov-17 17:58N 51°55' E 001°42'0 0.2
2017-Nov-17 17:31N 51°55' E 001°42'0 0.3
2017-Nov-17 17:00N 51°55' E 001°42'0 0.1
2017-Nov-17 16:30N 51°55' E 001°42'0 0.0
2017-Nov-17 15:54N 51°55' E 001°42'0 0.0
2017-Nov-17 15:30N 51°55' E 001°42'0 0.0
2017-Nov-17 14:59N 51°55' E 001°42'0 0.0
2017-Nov-17 14:29N 51°55' E 001°42'0 0.0
2017-Nov-17 13:56N 51°55' E 001°42'0 0.0
2017-Nov-17 13:20N 51°55' E 001°42'0 0.0
2017-Nov-17 12:53N 51°55' E 001°42'0 0.0
2017-Nov-17 12:28N 51°55' E 001°42'0 0.1
2017-Nov-17 11:46N 51°55' E 001°42'0 0.3
2017-Nov-17 11:25N 51°55' E 001°42'0 0.2
2017-Nov-17 10:58N 51°55' E 001°42'0 0.1
2017-Nov-17 10:30N 51°55' E 001°42'0 0.0
2017-Nov-17 10:00N 51°55' E 001°42'0 0.0
2017-Nov-17 09:27N 51°55' E 001°42'0 0.0
2017-Nov-17 09:00N 51°55' E 001°42'0 0.0
2017-Nov-17 08:30N 51°55' E 001°42'0 0.0
2017-Nov-17 07:59N 51°55' E 001°42'0 0.0
2017-Nov-17 07:14N 51°55' E 001°42'0 0.0
2017-Nov-17 06:53N 51°55' E 001°42'0 0.0
2017-Nov-17 06:23N 51°55' E 001°42'0 0.0
2017-Nov-17 05:59N 51°55' E 001°42'0 0.0
2017-Nov-17 05:25N 51°55' E 001°42'0 0.0
2017-Nov-17 04:58N 51°55' E 001°42'0 0.2
2017-Nov-17 04:28N 51°55' E 001°42'0 0.2
2017-Nov-17 03:55N 51°55' E 001°42'0 0.1
2017-Nov-17 03:30N 51°55' E 001°42'0 0.0
2017-Nov-17 03:00N 51°55' E 001°42'0 0.0
2017-Nov-17 02:27N 51°55' E 001°42'0 0.0
2017-Nov-17 02:00N 51°55' E 001°42'0 0.0
2017-Nov-17 01:30N 51°55' E 001°42'0 0.0
2017-Nov-17 00:59N 51°55' E 001°42'0 0.0
2017-Nov-17 00:29N 51°55' E 001°42'0 0.2
2017-Nov-16 23:59N 51°55' E 001°42'0 0.2
2017-Nov-16 23:29N 51°55' E 001°42'0 0.1
2017-Nov-16 22:59N 51°55' E 001°42'0 0.1
2017-Nov-16 22:19N 51°55' E 001°42'0 0.1
2017-Nov-16 21:58N 51°55' E 001°42'0 0.0
2017-Nov-16 21:28N 51°55' E 001°42'0 0.0
2017-Nov-16 20:58N 51°55' E 001°42'0 0.0
2017-Nov-16 20:30N 51°55' E 001°42'0 0.0
2017-Nov-16 20:00N 51°55' E 001°42'0 0.0
2017-Nov-16 19:30N 51°55' E 001°42'0 0.0
2017-Nov-16 19:00N 51°55' E 001°42'0 0.0
2017-Nov-16 18:27N 51°55' E 001°42'0 0.0
2017-Nov-16 17:56N 51°55' E 001°42'0 0.1
2017-Nov-16 17:20N 51°55' E 001°42'0 0.1
2017-Nov-16 16:53N 51°55' E 001°42'0 0.3
2017-Nov-16 16:29N 51°55' E 001°42'0 0.2
2017-Nov-16 15:52N 51°55' E 001°42'0 0.0
2017-Nov-16 15:28N 51°55' E 001°42'0 0.0
2017-Nov-16 14:58N 51°55' E 001°42'0 0.0
2017-Nov-16 14:28N 51°55' E 001°42'0 0.0
2017-Nov-16 13:58N 51°55' E 001°42'0 0.0
2017-Nov-16 13:30N 51°55' E 001°42'0 0.0
2017-Nov-16 13:00N 51°55' E 001°42'0 0.0
2017-Nov-16 12:30N 51°55' E 001°42'0 0.0
2017-Nov-16 11:54N 51°55' E 001°42'0 0.1
2017-Nov-16 11:30N 51°55' E 001°42'0 0.0
2017-Nov-16 10:59N 51°55' E 001°42'0 0.1
2017-Nov-16 10:29N 51°55' E 001°42'0 0.3
2017-Nov-16 09:59N 51°55' E 001°42'0 0.1
2017-Nov-16 09:23N 51°55' E 001°42'0 0.0
2017-Nov-16 08:59N 51°55' E 001°42'0 0.0
2017-Nov-16 08:28N 51°55' E 001°42'0 0.0
2017-Nov-16 07:58N 51°55' E 001°42'0 0.0
2017-Nov-16 07:25N 51°55' E 001°42'0 0.0
2017-Nov-16 06:58N 51°55' E 001°42'0 0.0
2017-Nov-16 06:30N 51°55' E 001°42'0 0.0
2017-Nov-16 05:57N 51°55' E 001°42'0 0.0
2017-Nov-16 05:30N 51°55' E 001°42'0 0.3
2017-Nov-16 04:54N 51°55' E 001°42'0 0.4
2017-Nov-16 04:30N 51°55' E 001°42'0 0.0
2017-Nov-16 03:59N 51°55' E 001°42'0 0.0
2017-Nov-16 03:29N 51°55' E 001°42'0 0.0
2017-Nov-16 02:59N 51°55' E 001°42'0 0.0
2017-Nov-16 02:26N 51°55' E 001°42'0 0.0
2017-Nov-16 01:58N 51°55' E 001°42'0 0.0
2017-Nov-16 01:22N 51°55' E 001°42'0 0.0
2017-Nov-16 00:58N 51°55' E 001°42'0 0.0
2017-Nov-16 00:25N 51°55' E 001°42'0 0.0
2017-Nov-15 23:55N 51°55' E 001°42'0 0.1
2017-Nov-15 23:27N 51°55' E 001°42'0 0.0
2017-Nov-15 23:00N 51°55' E 001°42'0 0.1
2017-Nov-15 22:30N 51°55' E 001°42'0 0.3
2017-Nov-15 21:54N 51°55' E 001°42'0 0.1
2017-Nov-15 21:30N 51°55' E 001°42'0 0.0
2017-Nov-15 20:50N 51°55' E 001°42'0 0.0
2017-Nov-15 20:26N 51°55' E 001°42'0 0.0
2017-Nov-15 19:59N 51°55' E 001°42'0 0.0
2017-Nov-15 19:23N 51°55' E 001°42'0 0.0
2017-Nov-15 18:58N 51°55' E 001°42'0 0.0
2017-Nov-15 18:25N 51°55' E 001°42'0 0.0
2017-Nov-15 17:55N 51°55' E 001°42'0 0.0
2017-Nov-15 17:22N 51°55' E 001°42'0 0.0
2017-Nov-15 16:58N 51°55' E 001°42'0 0.1
2017-Nov-15 16:27N 51°55' E 001°42'0 0.4
2017-Nov-15 16:00N 51°55' E 001°42'0 0.1
2017-Nov-15 15:27N 51°55' E 001°42'0 0.0
2017-Nov-15 15:00N 51°55' E 001°42'0 0.0
2017-Nov-15 14:30N 51°55' E 001°42'0 0.0
2017-Nov-15 13:56N 51°55' E 001°42'0 0.0
2017-Nov-15 13:26N 51°55' E 001°42'0 0.0
2017-Nov-15 12:59N 51°55' E 001°42'0 0.0
2017-Nov-15 12:26N 51°55' E 001°42'0 0.0
2017-Nov-15 11:55N 51°55' E 001°42'0 0.0
2017-Nov-15 11:28N 51°55' E 001°42'0 0.0
2017-Nov-15 10:58N 51°55' E 001°42'0 0.0
2017-Nov-15 10:28N 51°55' E 001°42'0 0.1
2017-Nov-15 09:55N 51°55' E 001°42'0 0.3
2017-Nov-15 09:30N 51°55' E 001°42'0 0.1
2017-Nov-15 09:00N 51°55' E 001°42'0 0.0
2017-Nov-15 08:30N 51°55' E 001°42'0 0.0
2017-Nov-15 08:00N 51°55' E 001°42'0 0.0
2017-Nov-15 07:30N 51°55' E 001°42'0 0.0
2017-Nov-15 06:59N 51°55' E 001°42'0 0.0
2017-Nov-15 06:23N 51°55' E 001°42'0 0.0
2017-Nov-15 05:59N 51°55' E 001°42'0 0.0
2017-Nov-15 05:29N 51°55' E 001°42'0 0.0
2017-Nov-15 04:58N 51°55' E 001°42'0 0.0
2017-Nov-15 04:28N 51°55' E 001°42'0 0.3
2017-Nov-15 03:58N 51°55' E 001°42'0 0.3
2017-Nov-15 03:30N 51°55' E 001°42'0 0.0
2017-Nov-15 02:52N 51°55' E 001°42'0 0.0
2017-Nov-15 02:27N 51°55' E 001°42'0 0.0
2017-Nov-15 02:00N 51°55' E 001°42'0 0.0
2017-Nov-15 01:30N 51°55' E 001°42'0 0.0
2017-Nov-15 01:00N 51°55' E 001°42'0 0.0
2017-Nov-15 00:30N 51°55' E 001°42'0 0.0
2017-Nov-15 00:00N 51°55' E 001°42'0 0.0
2017-Nov-14 23:27N 51°55' E 001°42'0 0.0
2017-Nov-14 23:00N 51°55' E 001°42'0 0.0
2017-Nov-14 22:29N 51°55' E 001°42'0 0.0
2017-Nov-14 21:59N 51°55' E 001°42'0 0.0
2017-Nov-14 21:29N 51°55' E 001°42'0 0.2
2017-Nov-14 20:59N 51°55' E 001°42'0 0.2
2017-Nov-14 20:29N 51°55' E 001°42'0 0.1
2017-Nov-14 19:58N 51°55' E 001°42'0 0.0
2017-Nov-14 19:22N 51°55' E 001°42'0 0.0
2017-Nov-14 18:58N 51°55' E 001°42'0 0.0
2017-Nov-14 18:28N 51°55' E 001°42'0 0.0
2017-Nov-14 17:58N 51°55' E 001°42'0 0.0
2017-Nov-14 17:30N 51°55' E 001°42'0 0.0
2017-Nov-14 16:57N 51°55' E 001°42'0 0.0
2017-Nov-14 16:30N 51°55' E 001°42'0 0.0
2017-Nov-14 16:00N 51°55' E 001°42'0 0.4
2017-Nov-14 15:29N 51°55' E 001°42'0 0.2
2017-Nov-14 14:56N 51°55' E 001°42'0 0.1
2017-Nov-14 14:26N 51°55' E 001°42'0 0.0
2017-Nov-14 13:59N 51°55' E 001°42'  
Track history (hours):
 
Tides and Currents Weather Stations Pressure Air Temp Water Temp Dewpoint Dewpoint Depression Visibility Wind Speed Wind Dir Waves Ship Positions

Baltic Advance

Last reported at 2017-Nov-24 13:44 UTC. Time now 2017-Nov-24 16:55 UTC.
Position N 55°12' E 013°09'.

Length 181 m; draft 6.8 m.

Type: Ship. MMSI: 212182000.

Date/timePositionNaut miles runAvg speedWind from/ knotsBaromVisibWave heightAir tempDewpointWater temp
2017-Nov-24 13:44N 55°12' E 013°09'3 9.3
2017-Nov-24 13:28N 55°13' E 013°04'4 9.3
2017-Nov-24 13:00N 55°14' E 012°57'5 9.6
2017-Nov-24 12:28N 55°15' E 012°49'510.1
2017-Nov-24 11:59N 55°17' E 012°41'3 6.7
2017-Nov-24 11:30N 55°19' E 012°37'4 8.7
2017-Nov-24 11:00N 55°24' E 012°39'4 8.7
2017-Nov-24 10:30N 55°28' E 012°41'4 8.0
2017-Nov-24 10:00N 55°31' E 012°45'5 9.5
2017-Nov-24 09:30N 55°35' E 012°50'510.9
2017-Nov-24 09:01N 55°39' E 012°56'713.6
2017-Nov-24 08:31N 55°45' E 012°51'713.7
2017-Nov-24 08:00N 55°51' E 012°45'713.4
2017-Nov-24 07:31N 55°58' E 012°42'612.8
2017-Nov-24 07:01N 56°04' E 012°38'611.7
2017-Nov-24 06:31N 56°07' E 012°30'4 7.9
2017-Nov-24 06:01N 56°10' E 012°25'3 6.3
2017-Nov-24 05:30N 56°11' E 012°20'3 6.3
2017-Nov-24 05:01N 56°13' E 012°15'5 8.8
2017-Nov-24 04:29N 56°16' E 012°08'58 8.7
2017-Nov-23 21:50N 57°11' E 011°36'2 7.7
2017-Nov-23 21:31N 57°13' E 011°34'4 7.9
2017-Nov-23 21:00N 57°17' E 011°31'4 8.0
2017-Nov-23 20:30N 57°21' E 011°29'4 8.4
2017-Nov-23 20:01N 57°24' E 011°27'4 8.2
2017-Nov-23 19:31N 57°28' E 011°24'5 9.4
2017-Nov-23 19:00N 57°31' E 011°17'5 9.4
2017-Nov-23 18:30N 57°34' E 011°10'5 9.5
2017-Nov-23 17:58N 57°38' E 011°03'5 9.3
2017-Nov-23 17:29N 57°41' E 010°57'5 9.2
2017-Nov-23 16:59N 57°44' E 010°51'5 9.5
2017-Nov-23 16:29N 57°47' E 010°44'4 9.1
2017-Nov-23 16:00N 57°51' E 010°39'4 9.1
2017-Nov-23 15:31N 57°53' E 010°33'4 7.7
2017-Nov-23 14:59N 57°56' E 010°27'39 9.7
2017-Nov-23 10:57N 57°48' E 009°14'510.6
2017-Nov-23 10:28N 57°47' E 009°05'510.2
2017-Nov-23 10:00N 57°44' E 008°58'611.4
2017-Nov-23 09:29N 57°40' E 008°51'612.5
2017-Nov-23 08:59N 57°35' E 008°43'  
2017-Nov-20 00:30N 51°28' E 000°16'0 0.0
2017-Nov-20 00:00N 51°28' E 000°16'0 0.0
2017-Nov-19 23:30N 51°28' E 000°16'0 0.0
2017-Nov-19 23:00N 51°28' E 000°16'0 0.0
2017-Nov-19 22:31N 51°28' E 000°16'0 0.0
2017-Nov-19 22:00N 51°28' E 000°16'0 0.0
2017-Nov-19 21:30N 51°28' E 000°16'0 0.0
2017-Nov-19 21:00N 51°28' E 000°16'0 0.0
2017-Nov-19 20:30N 51°28' E 000°16'0 0.0
2017-Nov-19 20:01N 51°28' E 000°16'0 0.0
2017-Nov-19 19:30N 51°28' E 000°16'0 0.0
2017-Nov-19 19:00N 51°28' E 000°16'0 0.0
2017-Nov-19 18:30N 51°28' E 000°16'0 0.0
2017-Nov-19 18:00N 51°28' E 000°16'0 0.0
2017-Nov-19 17:30N 51°28' E 000°16'0 0.0
2017-Nov-19 17:01N 51°28' E 000°16'0 0.0
2017-Nov-19 16:31N 51°28' E 000°16'0 0.0
2017-Nov-19 16:01N 51°28' E 000°16'0 0.0
2017-Nov-19 15:30N 51°28' E 000°16'0 0.1
2017-Nov-19 15:01N 51°28' E 000°16'2 3.0
2017-Nov-19 14:30N 51°28' E 000°19'3 6.7
2017-Nov-19 14:00N 51°27' E 000°24'510.0
2017-Nov-19 13:31N 51°30' E 000°30'4 8.4
2017-Nov-19 13:00N 51°30' E 000°37'4 7.0
2017-Nov-19 12:30N 51°30' E 000°42'710.9
2017-Nov-19 11:54N 51°29' E 000°53'510.6
2017-Nov-19 11:28N 51°30' E 001°00'511.1
2017-Nov-19 10:59N 51°32' E 001°08'713.6
2017-Nov-19 10:30N 51°36' E 001°17'714.3
2017-Nov-19 10:00N 51°40' E 001°25'714.5
2017-Nov-19 09:30N 51°46' E 001°32'713.0
2017-Nov-19 09:00N 51°50' E 001°40'2 4.9
2017-Nov-19 08:30N 51°52' E 001°44'2 5.0
2017-Nov-19 08:00N 51°54' E 001°43'1 0.9
2017-Nov-19 06:53N 51°55' E 001°42'0 0.1
2017-Nov-19 06:28N 51°55' E 001°42'0 0.1
2017-Nov-19 05:58N 51°55' E 001°42'0 0.3
2017-Nov-19 05:28N 51°55' E 001°42'0 0.2
2017-Nov-19 04:58N 51°55' E 001°42'0 0.1
2017-Nov-19 04:28N 51°55' E 001°42'0 0.0
2017-Nov-19 03:57N 51°55' E 001°42'0 0.0
2017-Nov-19 03:30N 51°55' E 001°42'0 0.0
2017-Nov-19 03:00N 51°55' E 001°42'0 0.0
2017-Nov-19 02:30N 51°55' E 001°42'0 0.0
2017-Nov-19 02:00N 51°55' E 001°42'0 0.1
2017-Nov-19 01:15N 51°55' E 001°42'0 0.2
2017-Nov-19 00:56N 51°55' E 001°42'0 0.2
2017-Nov-19 00:20N 51°55' E 001°42'0 0.1
2017-Nov-18 23:56N 51°55' E 001°42'0 0.2
2017-Nov-18 23:19N 51°55' E 001°42'0 0.1
2017-Nov-18 22:58N 51°55' E 001°42'0 0.0
2017-Nov-18 22:25N 51°55' E 001°42'0 0.0
2017-Nov-18 21:58N 51°55' E 001°42'0 0.0
2017-Nov-18 21:28N 51°55' E 001°42'0 0.0
2017-Nov-18 20:57N 51°55' E 001°42'0 0.0
2017-Nov-18 20:30N 51°55' E 001°42'0 0.0
2017-Nov-18 20:00N 51°55' E 001°42'0 0.0
2017-Nov-18 19:30N 51°55' E 001°42'0 0.0
2017-Nov-18 18:56N 51°55' E 001°42'0 0.2
2017-Nov-18 18:20N 51°55' E 001°42'0 0.2
2017-Nov-18 17:53N 51°55' E 001°42'0 0.3
2017-Nov-18 17:23N 51°55' E 001°42'0 0.1
2017-Nov-18 16:59N 51°55' E 001°42'0 0.0
2017-Nov-18 16:28N 51°55' E 001°42'0 0.0
2017-Nov-18 15:58N 51°55' E 001°42'0 0.0
2017-Nov-18 15:28N 51°55' E 001°42'0 0.0
2017-Nov-18 14:55N 51°55' E 001°42'0 0.0
2017-Nov-18 14:28N 51°55' E 001°42'0 0.0
2017-Nov-18 13:57N 51°55' E 001°42'0 0.0
2017-Nov-18 13:27N 51°55' E 001°42'0 0.1
2017-Nov-18 12:57N 51°55' E 001°42'0 0.1
2017-Nov-18 12:27N 51°55' E 001°42'0 0.0
2017-Nov-18 11:56N 51°55' E 001°42'0 0.3
2017-Nov-18 11:29N 51°55' E 001°42'0 0.1
2017-Nov-18 10:02N 51°55' E 001°42'0 0.0
2017-Nov-18 09:44N 51°55' E 001°42'0 0.0
2017-Nov-18 09:19N 51°55' E 001°42'0 0.0
2017-Nov-18 08:58N 51°55' E 001°42'0 0.0
2017-Nov-18 08:28N 51°55' E 001°42'0 0.0
2017-Nov-18 07:58N 51°55' E 001°42'0 0.0
2017-Nov-18 07:28N 51°55' E 001°42'0 0.0
2017-Nov-18 07:00N 51°55' E 001°42'0 0.1
2017-Nov-18 06:30N 51°55' E 001°42'0 0.3
2017-Nov-18 06:00N 51°55' E 001°42'0 0.1
2017-Nov-18 05:18N 51°55' E 001°42'0 0.1
2017-Nov-18 04:53N 51°55' E 001°42'0 0.1
2017-Nov-18 04:29N 51°55' E 001°42'0 0.0
2017-Nov-18 03:53N 51°55' E 001°42'0 0.0
2017-Nov-18 03:29N 51°55' E 001°42'0 0.0
2017-Nov-18 02:56N 51°55' E 001°42'0 0.0
2017-Nov-18 02:22N 51°55' E 001°42'0 0.0
2017-Nov-18 01:58N 51°55' E 001°42'0 0.0
2017-Nov-18 01:25N 51°55' E 001°42'0 0.0
2017-Nov-18 00:55N 51°55' E 001°42'0 0.1
2017-Nov-18 00:25N 51°55' E 001°42'0 0.1
2017-Nov-18 00:00N 51°55' E 001°42'0 0.1
2017-Nov-17 23:24N 51°55' E 001°42'0 0.3
2017-Nov-17 23:00N 51°55' E 001°42'0 0.1
2017-Nov-17 22:18N 51°55' E 001°42'0 0.0
2017-Nov-17 21:53N 51°55' E 001°42'0 0.0
2017-Nov-17 21:29N 51°55' E 001°42'0 0.0
2017-Nov-17 20:56N 51°55' E 001°42'0 0.0
2017-Nov-17 20:26N 51°55' E 001°42'0 0.0
2017-Nov-17 19:50N 51°55' E 001°42'0 0.0
2017-Nov-17 19:10N 51°55' E 001°42'0 0.0
2017-Nov-17 18:58N 51°55' E 001°42'0 0.0
2017-Nov-17 18:28N 51°55' E 001°42'0 0.0
2017-Nov-17 17:58N 51°55' E 001°42'0 0.2
2017-Nov-17 17:31N 51°55' E 001°42'0 0.3
2017-Nov-17 17:00N 51°55' E 001°42'0 0.1
2017-Nov-17 16:30N 51°55' E 001°42'0 0.0
2017-Nov-17 15:54N 51°55' E 001°42'0 0.0
2017-Nov-17 15:30N 51°55' E 001°42'0 0.0
2017-Nov-17 14:59N 51°55' E 001°42'0 0.0
2017-Nov-17 14:29N 51°55' E 001°42'0 0.0
2017-Nov-17 13:56N 51°55' E 001°42'0 0.0
2017-Nov-17 13:20N 51°55' E 001°42'0 0.0
2017-Nov-17 12:53N 51°55' E 001°42'0 0.0
2017-Nov-17 12:28N 51°55' E 001°42'0 0.1
2017-Nov-17 11:46N 51°55' E 001°42'0 0.3
2017-Nov-17 11:25N 51°55' E 001°42'0 0.2
2017-Nov-17 10:58N 51°55' E 001°42'0 0.1
2017-Nov-17 10:30N 51°55' E 001°42'0 0.0
2017-Nov-17 10:00N 51°55' E 001°42'0 0.0
2017-Nov-17 09:27N 51°55' E 001°42'0 0.0
2017-Nov-17 09:00N 51°55' E 001°42'0 0.0
2017-Nov-17 08:30N 51°55' E 001°42'0 0.0
2017-Nov-17 07:59N 51°55' E 001°42'0 0.0
2017-Nov-17 07:14N 51°55' E 001°42'0 0.0
2017-Nov-17 06:53N 51°55' E 001°42'0 0.0
2017-Nov-17 06:23N 51°55' E 001°42'0 0.0
2017-Nov-17 05:59N 51°55' E 001°42'0 0.0
2017-Nov-17 05:25N 51°55' E 001°42'0 0.0
2017-Nov-17 04:58N 51°55' E 001°42'0 0.2
2017-Nov-17 04:28N 51°55' E 001°42'0 0.2
2017-Nov-17 03:55N 51°55' E 001°42'0 0.1
2017-Nov-17 03:30N 51°55' E 001°42'0 0.0
2017-Nov-17 03:00N 51°55' E 001°42'0 0.0
2017-Nov-17 02:27N 51°55' E 001°42'0 0.0
2017-Nov-17 02:00N 51°55' E 001°42'0 0.0
2017-Nov-17 01:30N 51°55' E 001°42'0 0.0
2017-Nov-17 00:59N 51°55' E 001°42'0 0.0
2017-Nov-17 00:29N 51°55' E 001°42'0 0.2
2017-Nov-16 23:59N 51°55' E 001°42'0 0.2
2017-Nov-16 23:29N 51°55' E 001°42'0 0.1
2017-Nov-16 22:59N 51°55' E 001°42'0 0.1
2017-Nov-16 22:19N 51°55' E 001°42'0 0.1
2017-Nov-16 21:58N 51°55' E 001°42'0 0.0
2017-Nov-16 21:28N 51°55' E 001°42'0 0.0
2017-Nov-16 20:58N 51°55' E 001°42'0 0.0
2017-Nov-16 20:30N 51°55' E 001°42'0 0.0
2017-Nov-16 20:00N 51°55' E 001°42'0 0.0
2017-Nov-16 19:30N 51°55' E 001°42'0 0.0
2017-Nov-16 19:00N 51°55' E 001°42'0 0.0
2017-Nov-16 18:27N 51°55' E 001°42'0 0.0
2017-Nov-16 17:56N 51°55' E 001°42'0 0.1
2017-Nov-16 17:20N 51°55' E 001°42'0 0.1
2017-Nov-16 16:53N 51°55' E 001°42'0 0.3
2017-Nov-16 16:29N 51°55' E 001°42'0 0.2
2017-Nov-16 15:52N 51°55' E 001°42'0 0.0
2017-Nov-16 15:28N 51°55' E 001°42'0 0.0
2017-Nov-16 14:58N 51°55' E 001°42'0 0.0
2017-Nov-16 14:28N 51°55' E 001°42'0 0.0
2017-Nov-16 13:58N 51°55' E 001°42'0 0.0
2017-Nov-16 13:30N 51°55' E 001°42'0 0.0
2017-Nov-16 13:00N 51°55' E 001°42'0 0.0
2017-Nov-16 12:30N 51°55' E 001°42'0 0.0
2017-Nov-16 11:54N 51°55' E 001°42'0 0.1
2017-Nov-16 11:30N 51°55' E 001°42'0 0.0
2017-Nov-16 10:59N 51°55' E 001°42'0 0.1
2017-Nov-16 10:29N 51°55' E 001°42'0 0.3
2017-Nov-16 09:59N 51°55' E 001°42'0 0.1
2017-Nov-16 09:23N 51°55' E 001°42'0 0.0
2017-Nov-16 08:59N 51°55' E 001°42'0 0.0
2017-Nov-16 08:28N 51°55' E 001°42'0 0.0
2017-Nov-16 07:58N 51°55' E 001°42'0 0.0
2017-Nov-16 07:25N 51°55' E 001°42'0 0.0
2017-Nov-16 06:58N 51°55' E 001°42'0 0.0
2017-Nov-16 06:30N 51°55' E 001°42'0 0.0
2017-Nov-16 05:57N 51°55' E 001°42'0 0.0
2017-Nov-16 05:30N 51°55' E 001°42'0 0.3
2017-Nov-16 04:54N 51°55' E 001°42'0 0.4
2017-Nov-16 04:30N 51°55' E 001°42'0 0.0
2017-Nov-16 03:59N 51°55' E 001°42'0 0.0
2017-Nov-16 03:29N 51°55' E 001°42'0 0.0
2017-Nov-16 02:59N 51°55' E 001°42'0 0.0
2017-Nov-16 02:26N 51°55' E 001°42'0 0.0
2017-Nov-16 01:58N 51°55' E 001°42'0 0.0
2017-Nov-16 01:22N 51°55' E 001°42'0 0.0
2017-Nov-16 00:58N 51°55' E 001°42'0 0.0
2017-Nov-16 00:25N 51°55' E 001°42'0 0.0
2017-Nov-15 23:55N 51°55' E 001°42'0 0.1
2017-Nov-15 23:27N 51°55' E 001°42'0 0.0
2017-Nov-15 23:00N 51°55' E 001°42'0 0.1
2017-Nov-15 22:30N 51°55' E 001°42'0 0.3
2017-Nov-15 21:54N 51°55' E 001°42'0 0.1
2017-Nov-15 21:30N 51°55' E 001°42'0 0.0
2017-Nov-15 20:50N 51°55' E 001°42'0 0.0
2017-Nov-15 20:26N 51°55' E 001°42'0 0.0
2017-Nov-15 19:59N 51°55' E 001°42'0 0.0
2017-Nov-15 19:23N 51°55' E 001°42'0 0.0
2017-Nov-15 18:58N 51°55' E 001°42'0 0.0
2017-Nov-15 18:25N 51°55' E 001°42'0 0.0
2017-Nov-15 17:55N 51°55' E 001°42'0 0.0
2017-Nov-15 17:22N 51°55' E 001°42'0 0.0
2017-Nov-15 16:58N 51°55' E 001°42'0 0.1
2017-Nov-15 16:27N 51°55' E 001°42'0 0.4
2017-Nov-15 16:00N 51°55' E 001°42'0 0.1
2017-Nov-15 15:27N 51°55' E 001°42'0 0.0
2017-Nov-15 15:00N 51°55' E 001°42'0 0.0
2017-Nov-15 14:30N 51°55' E 001°42'0 0.0
2017-Nov-15 13:56N 51°55' E 001°42'0 0.0
2017-Nov-15 13:26N 51°55' E 001°42'0 0.0
2017-Nov-15 12:59N 51°55' E 001°42'0 0.0
2017-Nov-15 12:26N 51°55' E 001°42'0 0.0
2017-Nov-15 11:55N 51°55' E 001°42'0 0.0
2017-Nov-15 11:28N 51°55' E 001°42'0 0.0
2017-Nov-15 10:58N 51°55' E 001°42'0 0.0
2017-Nov-15 10:28N 51°55' E 001°42'0 0.1
2017-Nov-15 09:55N 51°55' E 001°42'0 0.3
2017-Nov-15 09:30N 51°55' E 001°42'0 0.1
2017-Nov-15 09:00N 51°55' E 001°42'0 0.0
2017-Nov-15 08:30N 51°55' E 001°42'0 0.0
2017-Nov-15 08:00N 51°55' E 001°42'0 0.0
2017-Nov-15 07:30N 51°55' E 001°42'0 0.0
2017-Nov-15 06:59N 51°55' E 001°42'0 0.0
2017-Nov-15 06:23N 51°55' E 001°42'0 0.0
2017-Nov-15 05:59N 51°55' E 001°42'0 0.0
2017-Nov-15 05:29N 51°55' E 001°42'0 0.0
2017-Nov-15 04:58N 51°55' E 001°42'0 0.0
2017-Nov-15 04:28N 51°55' E 001°42'0 0.3
2017-Nov-15 03:58N 51°55' E 001°42'0 0.3
2017-Nov-15 03:30N 51°55' E 001°42'0 0.0
2017-Nov-15 02:52N 51°55' E 001°42'0 0.0
2017-Nov-15 02:27N 51°55' E 001°42'0 0.0
2017-Nov-15 02:00N 51°55' E 001°42'0 0.0
2017-Nov-15 01:30N 51°55' E 001°42'0 0.0
2017-Nov-15 01:00N 51°55' E 001°42'0 0.0
2017-Nov-15 00:30N 51°55' E 001°42'0 0.0
2017-Nov-15 00:00N 51°55' E 001°42'0 0.0
2017-Nov-14 23:27N 51°55' E 001°42'0 0.0
2017-Nov-14 23:00N 51°55' E 001°42'0 0.0
2017-Nov-14 22:29N 51°55' E 001°42'0 0.0
2017-Nov-14 21:59N 51°55' E 001°42'0 0.0
2017-Nov-14 21:29N 51°55' E 001°42'0 0.2
2017-Nov-14 20:59N 51°55' E 001°42'0 0.2
2017-Nov-14 20:29N 51°55' E 001°42'0 0.1
2017-Nov-14 19:58N 51°55' E 001°42'0 0.0
2017-Nov-14 19:22N 51°55' E 001°42'0 0.0
2017-Nov-14 18:58N 51°55' E 001°42'0 0.0
2017-Nov-14 18:28N 51°55' E 001°42'0 0.0
2017-Nov-14 17:58N 51°55' E 001°42'0 0.0
2017-Nov-14 17:30N 51°55' E 001°42'0 0.0
2017-Nov-14 16:57N 51°55' E 001°42'0 0.0
2017-Nov-14 16:30N 51°55' E 001°42'0 0.0
2017-Nov-14 16:00N 51°55' E 001°42'0 0.4
2017-Nov-14 15:29N 51°55' E 001°42'0 0.2
2017-Nov-14 14:56N 51°55' E 001°42'0 0.1
2017-Nov-14 14:26N 51°55' E 001°42'0 0.0
2017-Nov-14 13:59N 51°55' E 001°42'  

Dump ship's entire track history